createdAt,value
2022-09-12T00:01:51.434Z,15.20
2022-09-12T00:04:20.407Z,16.40
2022-09-12T00:06:49.133Z,15.95
2022-09-12T00:09:19.252Z,15.98
2022-09-12T00:11:48.488Z,16.27
2022-09-12T00:14:19.022Z,16.05
2022-09-12T00:16:48.018Z,15.55
2022-09-12T00:19:16.740Z,14.60
2022-09-12T00:21:45.389Z,14.07
2022-09-12T00:24:14.108Z,15.35
2022-09-12T00:26:44.545Z,15.18
2022-09-12T00:29:17.723Z,15.73
2022-09-12T00:31:47.031Z,15.13
2022-09-12T00:34:16.044Z,14.75
2022-09-12T00:36:44.729Z,15.13
2022-09-12T00:39:16.881Z,14.55
2022-09-12T00:41:47.213Z,14.10
2022-09-12T00:44:50.567Z,15.00
2022-09-12T00:47:24.705Z,13.50
2022-09-12T00:49:59.505Z,14.90
2022-09-12T00:52:32.869Z,15.15
2022-09-12T00:55:06.686Z,14.20
2022-09-12T00:57:43.279Z,14.77
2022-09-12T01:00:17.102Z,14.48
2022-09-12T01:02:50.150Z,14.40
2022-09-12T01:05:19.117Z,14.57
2022-09-12T01:07:48.994Z,15.93
2022-09-12T01:10:18.503Z,13.98
2022-09-12T01:12:49.897Z,13.82
2022-09-12T01:15:18.767Z,15.05
2022-09-12T01:18:07.812Z,14.13
2022-09-12T01:20:56.058Z,12.48
2022-09-12T01:24:04.375Z,11.98
2022-09-12T01:27:12.948Z,11.05
2022-09-12T01:30:29.015Z,9.88
2022-09-12T01:33:23.700Z,9.85
2022-09-12T01:36:09.193Z,8.85
2022-09-12T01:38:41.085Z,9.52
2022-09-12T01:41:19.122Z,8.55
2022-09-12T01:43:53.747Z,8.88
2022-09-12T01:46:27.761Z,9.55
2022-09-12T01:49:03.407Z,8.73
2022-09-12T01:51:37.571Z,8.20
2022-09-12T01:54:11.159Z,8.75
2022-09-12T01:56:43.840Z,8.50
2022-09-12T01:59:19.405Z,8.40
2022-09-12T02:01:55.078Z,8.13
2022-09-12T02:04:33.605Z,8.05
2022-09-12T02:07:09.918Z,7.68
2022-09-12T02:09:45.671Z,7.22
2022-09-12T02:12:18.871Z,6.80
2022-09-12T02:14:54.002Z,7.13
2022-09-12T02:17:26.410Z,7.03
2022-09-12T02:20:00.339Z,7.10
2022-09-12T02:22:31.428Z,6.93
2022-09-12T02:25:02.777Z,6.55
2022-09-12T02:27:37.868Z,7.43
2022-09-12T02:30:09.318Z,6.47
2022-09-12T02:32:42.319Z,5.55
2022-09-12T02:35:18.449Z,5.95
2022-09-12T02:37:56.535Z,5.35
2022-09-12T02:40:28.061Z,4.85
2022-09-12T02:42:57.573Z,5.10
2022-09-12T02:45:26.369Z,4.60
2022-09-12T02:47:59.451Z,5.00
2022-09-12T02:50:29.968Z,4.38
2022-09-12T02:53:03.921Z,5.20
2022-09-12T02:55:34.462Z,4.43
2022-09-12T02:58:06.314Z,4.70
2022-09-12T03:00:39.513Z,4.45
2022-09-12T03:03:25.817Z,3.78
2022-09-12T03:05:59.602Z,4.30
2022-09-12T03:08:45.846Z,4.13
2022-09-12T03:11:28.798Z,3.95
2022-09-12T03:14:08.786Z,4.50
2022-09-12T03:16:46.140Z,3.83
2022-09-12T03:19:25.074Z,4.60
2022-09-12T03:22:03.682Z,4.22
2022-09-12T03:24:38.248Z,4.75
2022-09-12T03:27:14.009Z,4.38
2022-09-12T03:29:46.362Z,5.05
2022-09-12T03:32:15.809Z,4.47
2022-09-12T03:34:44.706Z,4.32
2022-09-12T03:37:14.668Z,4.10
2022-09-12T03:39:43.445Z,3.60
2022-09-12T03:42:12.239Z,2.28
2022-09-12T03:44:41.023Z,1.58
2022-09-12T03:47:11.403Z,1.17
2022-09-12T03:49:40.255Z,1.00
2022-09-12T03:52:09.215Z,0.60
2022-09-12T03:54:39.878Z,0.63
2022-09-12T03:57:08.728Z,0.50
2022-09-12T03:59:37.949Z,2.67
2022-09-12T04:02:07.290Z,0.40
2022-09-12T04:04:36.417Z,0.60
2022-09-12T04:07:05.632Z,0.57
2022-09-12T04:09:34.502Z,0.60
2022-09-12T04:12:05.610Z,0.70
2022-09-12T04:14:34.227Z,0.80
2022-09-12T04:17:03.144Z,0.80
2022-09-12T04:19:31.905Z,0.70
2022-09-12T04:22:00.893Z,0.52
2022-09-12T04:24:29.748Z,0.80
2022-09-12T04:26:58.986Z,1.10
2022-09-12T04:29:29.615Z,1.30
2022-09-12T04:31:59.104Z,0.73
2022-09-12T04:34:28.024Z,0.70
2022-09-12T04:36:57.967Z,0.80
2022-09-12T04:39:27.004Z,0.75
2022-09-12T04:41:55.969Z,0.90
2022-09-12T04:44:24.931Z,0.70
2022-09-12T04:46:55.268Z,1.30
2022-09-12T04:49:24.368Z,0.82
2022-09-12T04:51:55.093Z,0.95
2022-09-12T04:54:24.209Z,0.90
2022-09-12T04:56:55.055Z,0.80
2022-09-12T04:59:23.982Z,0.90
2022-09-12T05:01:55.123Z,1.10
2022-09-12T05:04:24.329Z,1.30
2022-09-12T05:06:53.140Z,0.98
2022-09-12T05:09:22.074Z,0.80
2022-09-12T05:12:06.170Z,0.90
2022-09-12T05:14:35.776Z,0.80
2022-09-12T05:17:06.226Z,1.20
2022-09-12T05:19:35.127Z,1.00
2022-09-12T05:22:05.055Z,1.23
2022-09-12T05:24:34.155Z,0.90
2022-09-12T05:27:03.636Z,0.98
2022-09-12T05:29:32.594Z,1.13
2022-09-12T05:32:01.584Z,1.00
2022-09-12T05:34:31.746Z,1.00
2022-09-12T05:37:00.438Z,1.00
2022-09-12T05:39:29.431Z,2.08
2022-09-12T05:41:58.057Z,1.17
2022-09-12T05:44:29.612Z,1.10
2022-09-12T05:46:58.501Z,1.20
2022-09-12T05:49:27.571Z,1.48
2022-09-12T05:51:57.617Z,1.10
2022-09-12T05:54:31.344Z,1.20
2022-09-12T05:57:00.649Z,1.42
2022-09-12T05:59:30.133Z,1.20
2022-09-12T06:01:59.181Z,1.67
2022-09-12T06:04:28.264Z,1.23
2022-09-12T06:06:58.399Z,1.40
2022-09-12T06:09:28.326Z,1.30
2022-09-12T06:11:57.290Z,1.33
2022-09-12T06:14:25.985Z,1.42
2022-09-12T06:16:54.859Z,1.35
2022-09-12T06:19:25.169Z,1.20
2022-09-12T06:21:53.923Z,1.08
2022-09-12T06:24:25.129Z,1.23
2022-09-12T06:26:54.248Z,1.40
2022-09-12T06:29:22.996Z,1.30
2022-09-12T06:31:52.162Z,0.90
2022-09-12T06:34:20.983Z,1.27
2022-09-12T06:36:50.259Z,1.05
2022-09-12T06:39:21.296Z,1.02
2022-09-12T06:41:53.442Z,1.42
2022-09-12T06:44:35.378Z,1.13
2022-09-12T06:47:04.496Z,2.05
2022-09-12T06:49:34.079Z,1.40
2022-09-12T06:52:03.566Z,2.20
2022-09-12T06:54:32.754Z,1.30
2022-09-12T06:57:03.229Z,0.82
2022-09-12T06:59:32.577Z,1.17
2022-09-12T07:02:01.895Z,1.00
2022-09-12T07:04:33.422Z,1.40
2022-09-12T07:07:02.360Z,1.10
2022-09-12T07:09:32.721Z,1.10
2022-09-12T07:14:36.258Z,1.30
2022-09-12T07:17:06.035Z,1.15
2022-09-12T07:19:35.060Z,1.17
2022-09-12T07:22:04.383Z,1.17
2022-09-12T07:24:33.359Z,1.30
2022-09-12T07:27:02.377Z,1.10
2022-09-12T07:29:36.982Z,1.38
2022-09-12T07:32:07.682Z,1.10
2022-09-12T07:34:37.124Z,1.40
2022-09-12T07:37:06.398Z,1.40
2022-09-12T07:39:35.415Z,1.60
2022-09-12T07:42:04.522Z,1.50
2022-09-12T07:44:35.002Z,1.50
2022-09-12T07:47:07.684Z,1.58
2022-09-12T07:49:36.560Z,1.70
2022-09-12T07:52:06.098Z,1.50
2022-09-12T07:54:35.445Z,1.50
2022-09-12T07:57:04.506Z,1.50
2022-09-12T07:59:51.881Z,1.10
2022-09-12T08:02:21.577Z,1.40
2022-09-12T08:04:51.518Z,1.20
2022-09-12T08:07:20.410Z,1.20
2022-09-12T08:09:49.229Z,1.60
2022-09-12T08:12:20.333Z,1.77
2022-09-12T08:14:50.495Z,1.90
2022-09-12T08:17:19.325Z,1.90
2022-09-12T08:19:48.410Z,1.40
2022-09-12T08:22:18.690Z,1.20
2022-09-12T08:24:47.664Z,1.40
2022-09-12T08:27:16.721Z,1.35
2022-09-12T08:29:45.580Z,1.25
2022-09-12T08:32:15.777Z,1.27
2022-09-12T08:34:44.449Z,1.45
2022-09-12T08:37:13.428Z,1.88
2022-09-12T08:39:42.399Z,2.10
2022-09-12T08:42:20.372Z,1.58
2022-09-12T08:45:06.474Z,1.75
2022-09-12T08:47:40.140Z,1.55
2022-09-12T08:50:17.786Z,1.63
2022-09-12T08:52:53.618Z,1.50
2022-09-12T08:55:35.274Z,1.80
2022-09-12T08:58:13.427Z,1.45
2022-09-12T09:00:54.093Z,2.17
2022-09-12T09:03:55.375Z,1.70
2022-09-12T09:06:42.471Z,1.65
2022-09-12T09:09:20.826Z,1.83
2022-09-12T09:12:09.776Z,2.08
2022-09-12T09:14:55.752Z,2.08
2022-09-12T09:17:35.691Z,1.80
2022-09-12T09:20:17.240Z,1.70
2022-09-12T09:22:53.529Z,2.22
2022-09-12T09:25:26.553Z,2.00
2022-09-12T09:28:07.957Z,1.60
2022-09-12T09:30:37.976Z,2.00
2022-09-12T09:33:15.282Z,2.00
2022-09-12T09:35:47.515Z,1.90
2022-09-12T09:38:26.814Z,2.05
2022-09-12T09:41:11.964Z,2.13
2022-09-12T09:43:41.323Z,1.77
2022-09-12T09:46:11.400Z,1.80
2022-09-12T09:48:44.712Z,1.90
2022-09-12T09:51:17.966Z,1.90
2022-09-12T09:53:51.288Z,2.20
2022-09-12T09:58:56.673Z,1.90
2022-09-12T10:01:27.588Z,2.05
2022-09-12T10:04:00.440Z,1.70
2022-09-12T10:06:35.084Z,1.90
2022-09-12T10:09:19.902Z,2.05
2022-09-12T10:11:49.545Z,2.10
2022-09-12T10:14:36.832Z,2.00
2022-09-12T10:17:30.480Z,2.15
2022-09-12T10:20:21.511Z,1.90
2022-09-12T10:22:55.894Z,2.00
2022-09-12T10:25:27.284Z,2.80
2022-09-12T10:27:58.969Z,2.15
2022-09-12T10:30:29.808Z,2.20
2022-09-12T10:33:08.466Z,2.35
2022-09-12T10:35:50.261Z,2.15
2022-09-12T10:38:28.704Z,2.10
2022-09-12T10:41:01.431Z,1.70
2022-09-12T10:43:36.345Z,2.28
2022-09-12T10:46:25.220Z,1.77
2022-09-12T10:49:14.654Z,2.13
2022-09-12T10:51:43.663Z,2.50
2022-09-12T10:54:14.426Z,2.25
2022-09-12T10:56:58.524Z,2.10
2022-09-12T10:59:40.387Z,2.25
2022-09-12T11:02:24.830Z,2.10
2022-09-12T11:05:04.151Z,2.20
2022-09-12T11:07:43.412Z,2.00
2022-09-12T11:10:27.077Z,1.63
2022-09-12T11:13:11.120Z,1.80
2022-09-12T11:15:52.297Z,1.75
2022-09-12T11:18:35.306Z,1.80
2022-09-12T11:21:15.865Z,2.00
2022-09-12T11:24:07.253Z,1.77
2022-09-12T11:26:50.384Z,1.95
2022-09-12T11:29:34.813Z,2.28
2022-09-12T11:32:20.665Z,2.58
2022-09-12T11:35:00.780Z,2.50
2022-09-12T11:37:46.143Z,2.63
2022-09-12T11:40:30.331Z,2.80
2022-09-12T11:43:09.855Z,2.70
2022-09-12T11:45:43.267Z,2.97
2022-09-12T11:50:46.801Z,2.60
2022-09-12T11:53:20.632Z,2.50
2022-09-12T11:58:29.546Z,2.15
2022-09-12T12:01:08.784Z,1.92
2022-09-12T12:03:43.347Z,1.73
2022-09-12T12:06:16.200Z,2.30
2022-09-12T12:08:47.109Z,2.72
2022-09-12T12:11:31.850Z,2.40
2022-09-12T12:14:06.634Z,2.40
2022-09-12T12:16:39.739Z,2.53
2022-09-12T12:19:32.602Z,2.50
2022-09-12T12:22:18.488Z,2.42
2022-09-12T12:25:03.778Z,2.42
2022-09-12T12:27:59.175Z,2.60
2022-09-12T12:31:05.786Z,2.20
2022-09-12T12:34:21.022Z,2.90
2022-09-12T12:36:50.361Z,4.65
2022-09-12T12:40:03.167Z,6.22
2022-09-12T12:43:20.890Z,5.72
2022-09-12T12:46:14.598Z,4.20
2022-09-12T12:48:52.311Z,3.03
2022-09-12T12:51:36.520Z,2.38
2022-09-12T12:54:12.852Z,2.22
2022-09-12T12:56:44.007Z,1.75
2022-09-12T12:59:19.362Z,2.40
2022-09-12T13:01:55.352Z,2.33
2022-09-12T13:04:27.792Z,2.20
2022-09-12T13:07:07.204Z,2.05
2022-09-12T13:09:44.834Z,1.73
2022-09-12T13:12:20.866Z,2.15
2022-09-12T13:14:54.466Z,2.08
2022-09-12T13:17:30.522Z,2.47
2022-09-12T13:20:28.722Z,2.40
2022-09-12T13:22:59.439Z,2.08
2022-09-12T13:25:32.108Z,2.17
2022-09-12T13:28:16.686Z,1.90
2022-09-12T13:30:49.500Z,2.10
2022-09-12T13:33:26.332Z,2.25
2022-09-12T13:36:27.581Z,2.17
2022-09-12T13:39:14.188Z,2.60
2022-09-12T13:42:04.012Z,4.15
2022-09-12T13:44:38.924Z,2.70
2022-09-12T13:47:15.211Z,2.80
2022-09-12T13:49:47.283Z,2.72
2022-09-12T13:52:21.885Z,2.63
2022-09-12T13:54:56.883Z,2.65
2022-09-12T13:57:33.259Z,2.75
2022-09-12T14:00:07.086Z,2.85
2022-09-12T14:02:37.907Z,3.03
2022-09-12T14:05:19.952Z,3.17
2022-09-12T14:08:38.556Z,2.70
2022-09-12T14:11:09.845Z,3.00
2022-09-12T14:13:40.138Z,4.57
2022-09-12T14:16:12.698Z,3.30
2022-09-12T14:18:45.610Z,3.20
2022-09-12T14:21:26.514Z,3.05
2022-09-12T14:24:00.388Z,3.05
2022-09-12T14:26:33.601Z,3.08
2022-09-12T14:29:06.079Z,3.67
2022-09-12T14:32:16.714Z,3.60
2022-09-12T14:35:22.279Z,3.20
2022-09-12T14:37:53.156Z,3.40
2022-09-12T14:40:24.698Z,2.88
2022-09-12T14:42:56.981Z,2.65
2022-09-12T14:45:33.611Z,3.05
2022-09-12T14:48:04.588Z,3.50
2022-09-12T14:50:37.246Z,2.53
2022-09-12T14:53:22.473Z,2.57
2022-09-12T14:55:54.269Z,1.90
2022-09-12T14:58:27.949Z,2.10
2022-09-12T15:01:00.076Z,2.40
2022-09-12T15:03:34.655Z,2.72
2022-09-12T15:06:06.008Z,2.22
2022-09-12T15:08:36.481Z,2.25
2022-09-12T15:11:08.475Z,2.40
2022-09-12T15:13:42.140Z,1.90
2022-09-12T15:16:12.684Z,2.70
2022-09-12T15:21:26.300Z,2.13
2022-09-12T15:27:57.803Z,3.08
2022-09-12T15:30:27.215Z,2.90
2022-09-12T15:32:58.662Z,2.63
2022-09-12T15:35:36.332Z,3.63
2022-09-12T15:38:08.923Z,3.40
2022-09-12T15:40:40.328Z,4.00
2022-09-12T15:43:11.651Z,3.90
2022-09-12T15:45:41.135Z,4.03
2022-09-12T15:48:10.866Z,3.60
2022-09-12T15:50:40.314Z,3.90
2022-09-12T15:53:15.897Z,3.80
2022-09-12T15:55:47.095Z,3.83
2022-09-12T15:58:18.914Z,4.18
2022-09-12T16:00:48.904Z,3.78
2022-09-12T16:03:24.361Z,4.15
2022-09-12T16:05:59.823Z,4.20
2022-09-12T16:08:31.773Z,4.75
2022-09-12T16:11:06.018Z,5.15
2022-09-12T16:13:37.142Z,5.63
2022-09-12T16:16:07.777Z,5.68
2022-09-12T16:18:37.045Z,5.85
2022-09-12T16:21:08.172Z,6.72
2022-09-12T16:23:39.684Z,7.38
2022-09-12T16:26:09.248Z,8.20
2022-09-12T16:28:40.711Z,8.10
2022-09-12T16:31:13.196Z,7.78
2022-09-12T16:33:43.379Z,7.95
2022-09-12T16:36:16.138Z,8.07
2022-09-12T16:38:46.712Z,9.00
2022-09-12T16:41:26.228Z,6.93
2022-09-12T16:43:57.475Z,5.50
2022-09-12T16:46:33.370Z,5.72
2022-09-12T16:49:04.880Z,7.03
2022-09-12T16:51:37.647Z,5.70
2022-09-12T16:54:07.241Z,6.40
2022-09-12T16:56:37.076Z,6.13
2022-09-12T16:59:22.608Z,5.60
2022-09-12T17:01:55.609Z,5.63
2022-09-12T17:04:26.549Z,5.95
2022-09-12T17:06:55.641Z,6.50
2022-09-12T17:09:24.920Z,5.53
2022-09-12T17:11:54.987Z,5.78
2022-09-12T17:14:25.811Z,5.55
2022-09-12T17:16:55.257Z,6.72
2022-09-12T17:19:28.205Z,6.43
2022-09-12T17:21:59.601Z,6.97
2022-09-12T17:24:29.374Z,6.25
2022-09-12T17:26:59.567Z,6.90
2022-09-12T17:29:31.863Z,6.50
2022-09-12T17:32:01.525Z,5.78
2022-09-12T17:34:32.671Z,5.70
2022-09-12T17:37:07.623Z,4.80
2022-09-12T17:39:36.779Z,5.10
2022-09-12T17:42:07.126Z,5.95
2022-09-12T17:44:38.554Z,4.63
2022-09-12T17:47:08.513Z,4.95
2022-09-12T17:49:39.537Z,5.38
2022-09-12T17:52:16.274Z,4.55
2022-09-12T17:54:46.160Z,4.07
2022-09-12T17:57:15.969Z,4.45
2022-09-12T17:59:49.709Z,6.75
2022-09-12T18:02:17.922Z,5.32
2022-09-12T18:04:48.965Z,5.07
2022-09-12T18:07:19.445Z,5.97
2022-09-12T18:09:50.111Z,4.55
2022-09-12T18:12:20.465Z,4.25
2022-09-12T18:14:51.187Z,4.53
2022-09-12T18:17:20.082Z,4.85
2022-09-12T18:19:53.758Z,4.90
2022-09-12T18:22:23.131Z,5.03
2022-09-12T18:24:53.439Z,5.32
2022-09-12T18:27:22.431Z,4.97
2022-09-12T18:30:17.230Z,5.40
2022-09-12T18:32:42.293Z,5.13
2022-09-12T18:35:11.956Z,5.43
2022-09-12T18:37:42.491Z,5.25
2022-09-12T18:40:12.762Z,4.45
2022-09-12T18:42:41.777Z,4.68
2022-09-12T18:45:12.434Z,4.88
2022-09-12T18:47:42.220Z,4.97
2022-09-12T18:50:11.543Z,4.70
2022-09-12T18:52:40.534Z,5.13
2022-09-12T18:55:10.995Z,4.70
2022-09-12T18:57:41.902Z,3.85
2022-09-12T19:00:14.247Z,3.72
2022-09-12T19:02:43.611Z,4.55
2022-09-12T19:05:13.798Z,4.68
2022-09-12T19:07:43.045Z,5.45
2022-09-12T19:10:12.723Z,4.28
2022-09-12T19:12:41.871Z,5.25
2022-09-12T19:15:13.209Z,5.10
2022-09-12T19:17:45.990Z,5.57
2022-09-12T19:20:15.972Z,5.22
2022-09-12T19:22:45.426Z,6.15
2022-09-12T19:25:14.901Z,7.88
2022-09-12T19:27:44.332Z,7.80
2022-09-12T19:30:15.197Z,7.57
2022-09-12T19:32:45.740Z,7.82
2022-09-12T19:35:16.054Z,8.15
2022-09-12T19:37:45.626Z,5.70
2022-09-12T19:40:15.161Z,5.70
2022-09-12T19:42:44.267Z,4.50
2022-09-12T19:45:15.410Z,4.90
2022-09-12T19:47:45.327Z,4.35
2022-09-12T19:50:16.419Z,4.50
2022-09-12T19:52:46.005Z,4.40
2022-09-12T19:55:20.128Z,4.25
2022-09-12T19:57:52.287Z,4.20
2022-09-12T20:00:22.891Z,3.95
2022-09-12T20:02:56.595Z,4.28
2022-09-12T20:05:27.867Z,4.90
2022-09-12T20:07:57.874Z,4.65
2022-09-12T20:10:27.481Z,5.78
2022-09-12T20:12:56.367Z,4.47
2022-09-12T20:15:26.803Z,4.72
2022-09-12T20:17:56.857Z,4.22
2022-09-12T20:20:26.879Z,3.90
2022-09-12T20:22:55.892Z,4.43
2022-09-12T20:25:24.674Z,4.38
2022-09-12T20:27:56.941Z,4.35
2022-09-12T20:30:30.175Z,4.47
2022-09-12T20:32:59.080Z,4.07
2022-09-12T20:35:28.335Z,3.97
2022-09-12T20:37:57.429Z,4.28
2022-09-12T20:40:26.615Z,4.20
2022-09-12T20:42:55.362Z,3.72
2022-09-12T20:45:24.244Z,4.30
2022-09-12T20:47:54.428Z,4.40
2022-09-12T20:50:23.554Z,4.03
2022-09-12T20:52:52.456Z,4.10
2022-09-12T20:55:21.509Z,4.03
2022-09-12T20:57:51.271Z,4.78
2022-09-12T21:00:20.395Z,3.70
2022-09-12T21:02:51.955Z,3.92
2022-09-12T21:05:22.193Z,3.97
2022-09-12T21:07:53.441Z,4.00
2022-09-12T21:10:22.566Z,4.03
2022-09-12T21:12:53.853Z,3.30
2022-09-12T21:15:22.906Z,3.40
2022-09-12T21:17:52.903Z,3.85
2022-09-12T21:20:23.262Z,3.33
2022-09-12T21:22:52.657Z,3.63
2022-09-12T21:25:21.641Z,4.00
2022-09-12T21:27:50.632Z,3.85
2022-09-12T21:30:20.019Z,3.97
2022-09-12T21:32:48.993Z,3.53
2022-09-12T21:35:18.497Z,3.38
2022-09-12T21:37:48.665Z,3.90
2022-09-12T21:40:17.537Z,4.05
2022-09-12T21:42:46.705Z,3.67
2022-09-12T21:45:16.120Z,3.50
2022-09-12T21:47:45.012Z,3.75
2022-09-12T21:50:15.070Z,4.10
2022-09-12T21:52:43.998Z,3.60
2022-09-12T21:55:14.965Z,3.88
2022-09-12T21:57:44.402Z,3.72
2022-09-12T22:00:19.659Z,3.55
2022-09-12T22:02:49.305Z,3.80
2022-09-12T22:05:21.535Z,3.85
2022-09-12T22:07:51.557Z,3.70
2022-09-12T22:10:22.263Z,4.00
2022-09-12T22:12:51.268Z,4.25
2022-09-12T22:15:39.971Z,4.07
2022-09-12T22:18:09.457Z,4.05
2022-09-12T22:20:38.510Z,3.97
2022-09-12T22:23:25.418Z,3.83
2022-09-12T22:25:57.582Z,4.40
2022-09-12T22:28:27.187Z,4.60
2022-09-12T22:30:56.956Z,4.20
2022-09-12T22:33:27.041Z,4.25
2022-09-12T22:35:56.177Z,4.13
2022-09-12T22:38:26.713Z,4.18
2022-09-12T22:40:58.088Z,4.07
2022-09-12T22:43:27.916Z,4.15
2022-09-12T22:45:56.746Z,4.85
2022-09-12T22:48:25.916Z,4.25
2022-09-12T22:50:55.070Z,4.40
2022-09-12T22:53:24.594Z,4.65
2022-09-12T22:55:53.790Z,4.78
2022-09-12T22:58:24.954Z,4.63
2022-09-12T23:00:54.326Z,4.38
2022-09-12T23:03:23.837Z,4.63
2022-09-12T23:05:55.551Z,4.40
2022-09-12T23:08:29.823Z,4.32
2022-09-12T23:11:03.010Z,4.35
2022-09-12T23:13:33.825Z,4.47
2022-09-12T23:16:04.983Z,5.13
2022-09-12T23:18:36.053Z,4.43
2022-09-12T23:21:07.510Z,4.40
2022-09-12T23:23:37.311Z,4.47
2022-09-12T23:26:08.206Z,4.50
2022-09-12T23:28:40.565Z,4.00
2022-09-12T23:31:11.733Z,4.95
2022-09-12T23:33:40.765Z,4.45
2022-09-12T23:36:12.816Z,4.45
2022-09-12T23:38:43.670Z,4.55
2022-09-12T23:41:14.742Z,5.18
2022-09-12T23:43:45.718Z,5.25
2022-09-12T23:46:15.128Z,5.10
2022-09-12T23:48:44.749Z,4.90
2022-09-12T23:51:14.010Z,4.53
2022-09-12T23:53:43.402Z,5.20
2022-09-12T23:56:12.749Z,4.85
2022-09-12T23:58:41.977Z,5.20
